sensor_id;sensor_type;location;lat;lon;timestamp;temperature;humidity
56103;DHT22;41970;48.774;9.280;2023-06-24T00:01:50;18.50;95.60
56103;DHT22;41970;48.774;9.280;2023-06-24T00:04:16;18.30;96.00
56103;DHT22;41970;48.774;9.280;2023-06-24T00:06:44;18.10;96.30
56103;DHT22;41970;48.774;9.280;2023-06-24T00:09:10;18.10;96.50
56103;DHT22;41970;48.774;9.280;2023-06-24T00:11:35;18.10;96.70
56103;DHT22;41970;48.774;9.280;2023-06-24T00:14:01;18.10;96.70
56103;DHT22;41970;48.774;9.280;2023-06-24T00:16:27;18.20;96.50
56103;DHT22;41970;48.774;9.280;2023-06-24T00:18:54;18.20;96.50
56103;DHT22;41970;48.774;9.280;2023-06-24T00:21:26;18.10;96.70
56103;DHT22;41970;48.774;9.280;2023-06-24T00:23:59;18.10;96.70
56103;DHT22;41970;48.774;9.280;2023-06-24T00:26:30;18.10;96.70
56103;DHT22;41970;48.774;9.280;2023-06-24T00:28:55;18.10;96.70
56103;DHT22;41970;48.774;9.280;2023-06-24T00:31:21;18.10;96.50
56103;DHT22;41970;48.774;9.280;2023-06-24T00:33:47;17.90;96.70
56103;DHT22;41970;48.774;9.280;2023-06-24T00:36:15;17.70;97.10
56103;DHT22;41970;48.774;9.280;2023-06-24T00:38:40;17.50;97.40
56103;DHT22;41970;48.774;9.280;2023-06-24T00:41:07;17.40;97.70
56103;DHT22;41970;48.774;9.280;2023-06-24T00:43:33;17.50;97.60
56103;DHT22;41970;48.774;9.280;2023-06-24T00:45:59;17.70;97.40
56103;DHT22;41970;48.774;9.280;2023-06-24T00:48:24;17.80;97.30
56103;DHT22;41970;48.774;9.280;2023-06-24T00:50:51;17.90;97.10
56103;DHT22;41970;48.774;9.280;2023-06-24T00:53:17;18.00;96.90
56103;DHT22;41970;48.774;9.280;2023-06-24T00:55:46;17.90;97.00
56103;DHT22;41970;48.774;9.280;2023-06-24T00:58:13;17.80;97.30
56103;DHT22;41970;48.774;9.280;2023-06-24T01:00:43;17.80;97.30
56103;DHT22;41970;48.774;9.280;2023-06-24T01:03:11;17.90;97.20
56103;DHT22;41970;48.774;9.280;2023-06-24T01:05:44;17.90;97.10
56103;DHT22;41970;48.774;9.280;2023-06-24T01:08:10;17.90;97.10
56103;DHT22;41970;48.774;9.280;2023-06-24T01:10:42;17.90;97.20
56103;DHT22;41970;48.774;9.280;2023-06-24T01:13:08;17.80;97.30
56103;DHT22;41970;48.774;9.280;2023-06-24T01:15:34;17.70;97.50
56103;DHT22;41970;48.774;9.280;2023-06-24T01:21:09;17.70;97.60
56103;DHT22;41970;48.774;9.280;2023-06-24T01:34:42;17.10;98.60
56103;DHT22;41970;48.774;9.280;2023-06-24T01:37:11;17.10;98.80
56103;DHT22;41970;48.774;9.280;2023-06-24T01:40:57;16.90;99.00
56103;DHT22;41970;48.774;9.280;2023-06-24T01:42:52;16.90;99.20
56103;DHT22;41970;48.774;9.280;2023-06-24T01:45:25;17.00;99.10
56103;DHT22;41970;48.774;9.280;2023-06-24T01:48:00;16.90;99.10
56103;DHT22;41970;48.774;9.280;2023-06-24T01:50:30;16.90;99.30
56103;DHT22;41970;48.774;9.280;2023-06-24T01:52:57;16.80;99.50
56103;DHT22;41970;48.774;9.280;2023-06-24T01:55:25;16.80;99.60
56103;DHT22;41970;48.774;9.280;2023-06-24T01:57:52;16.90;99.50
56103;DHT22;41970;48.774;9.280;2023-06-24T02:00:21;17.00;99.40
56103;DHT22;41970;48.774;9.280;2023-06-24T02:02:49;17.00;99.40
56103;DHT22;41970;48.774;9.280;2023-06-24T02:05:18;16.90;99.50
56103;DHT22;41970;48.774;9.280;2023-06-24T02:07:48;16.80;99.80
56103;DHT22;41970;48.774;9.280;2023-06-24T02:10:16;16.70;99.90
56103;DHT22;41970;48.774;9.280;2023-06-24T02:12:44;16.60;99.90
56103;DHT22;41970;48.774;9.280;2023-06-24T02:15:10;16.70;99.90
56103;DHT22;41970;48.774;9.280;2023-06-24T02:17:37;16.80;99.90
56103;DHT22;41970;48.774;9.280;2023-06-24T02:20:06;16.80;99.80
56103;DHT22;41970;48.774;9.280;2023-06-24T02:22:35;16.80;99.70
56103;DHT22;41970;48.774;9.280;2023-06-24T02:25:02;16.80;99.90
56103;DHT22;41970;48.774;9.280;2023-06-24T02:27:30;16.70;99.90
56103;DHT22;41970;48.774;9.280;2023-06-24T02:29:57;16.70;99.90
56103;DHT22;41970;48.774;9.280;2023-06-24T02:32:23;16.80;99.90
56103;DHT22;41970;48.774;9.280;2023-06-24T02:34:49;16.80;99.90
56103;DHT22;41970;48.774;9.280;2023-06-24T02:37:15;16.90;99.90
56103;DHT22;41970;48.774;9.280;2023-06-24T02:39:40;16.90;99.90
56103;DHT22;41970;48.774;9.280;2023-06-24T02:42:10;16.90;99.80
56103;DHT22;41970;48.774;9.280;2023-06-24T02:44:38;16.90;99.80
56103;DHT22;41970;48.774;9.280;2023-06-24T02:47:06;16.80;99.90
56103;DHT22;41970;48.774;9.280;2023-06-24T02:49:33;16.70;99.90
56103;DHT22;41970;48.774;9.280;2023-06-24T02:52:00;16.70;99.90
56103;DHT22;41970;48.774;9.280;2023-06-24T02:54:26;16.80;99.90
56103;DHT22;41970;48.774;9.280;2023-06-24T02:56:52;16.90;99.90
56103;DHT22;41970;48.774;9.280;2023-06-24T02:59:21;16.90;99.90
56103;DHT22;41970;48.774;9.280;2023-06-24T03:01:48;16.80;99.90
56103;DHT22;41970;48.774;9.280;2023-06-24T03:04:18;16.60;99.90
56103;DHT22;41970;48.774;9.280;2023-06-24T03:06:44;16.70;99.90
56103;DHT22;41970;48.774;9.280;2023-06-24T03:09:10;16.70;99.90
56103;DHT22;41970;48.774;9.280;2023-06-24T03:11:43;16.60;99.90
56103;DHT22;41970;48.774;9.280;2023-06-24T03:14:10;16.70;99.90
56103;DHT22;41970;48.774;9.280;2023-06-24T03:16:36;16.60;99.90
56103;DHT22;41970;48.774;9.280;2023-06-24T03:19:04;16.60;99.90
56103;DHT22;41970;48.774;9.280;2023-06-24T03:21:30;16.50;99.90
56103;DHT22;41970;48.774;9.280;2023-06-24T03:23:56;16.50;99.90
56103;DHT22;41970;48.774;9.280;2023-06-24T03:26:22;16.60;99.90
56103;DHT22;41970;48.774;9.280;2023-06-24T03:28:48;16.60;99.90
56103;DHT22;41970;48.774;9.280;2023-06-24T03:31:14;16.60;99.90
56103;DHT22;41970;48.774;9.280;2023-06-24T03:33:41;16.70;99.90
56103;DHT22;41970;48.774;9.280;2023-06-24T03:36:11;16.70;99.90
56103;DHT22;41970;48.774;9.280;2023-06-24T03:38:36;16.80;99.90
56103;DHT22;41970;48.774;9.280;2023-06-24T03:41:02;16.80;99.90
56103;DHT22;41970;48.774;9.280;2023-06-24T03:43:28;16.90;99.90
56103;DHT22;41970;48.774;9.280;2023-06-24T03:45:54;16.80;99.90
56103;DHT22;41970;48.774;9.280;2023-06-24T03:48:20;16.80;99.90
56103;DHT22;41970;48.774;9.280;2023-06-24T03:50:46;16.90;99.90
56103;DHT22;41970;48.774;9.280;2023-06-24T03:53:12;16.80;99.90
56103;DHT22;41970;48.774;9.280;2023-06-24T03:55:39;16.80;99.90
56103;DHT22;41970;48.774;9.280;2023-06-24T03:58:04;16.80;99.90
56103;DHT22;41970;48.774;9.280;2023-06-24T04:00:31;16.80;99.90
56103;DHT22;41970;48.774;9.280;2023-06-24T04:02:57;16.80;99.90
56103;DHT22;41970;48.774;9.280;2023-06-24T04:05:26;16.80;99.90
56103;DHT22;41970;48.774;9.280;2023-06-24T04:07:52;16.80;99.90
56103;DHT22;41970;48.774;9.280;2023-06-24T04:10:19;16.80;99.90
56103;DHT22;41970;48.774;9.280;2023-06-24T04:12:45;16.80;99.90
56103;DHT22;41970;48.774;9.280;2023-06-24T04:15:11;16.90;99.90
56103;DHT22;41970;48.774;9.280;2023-06-24T04:17:37;16.90;99.90
56103;DHT22;41970;48.774;9.280;2023-06-24T04:20:03;17.00;99.90
56103;DHT22;41970;48.774;9.280;2023-06-24T04:22:32;17.10;99.90
56103;DHT22;41970;48.774;9.280;2023-06-24T04:24:58;17.20;99.90
56103;DHT22;41970;48.774;9.280;2023-06-24T04:27:23;17.20;99.90
56103;DHT22;41970;48.774;9.280;2023-06-24T04:29:49;17.20;99.90
56103;DHT22;41970;48.774;9.280;2023-06-24T04:32:16;17.30;99.90
56103;DHT22;41970;48.774;9.280;2023-06-24T04:34:42;17.30;99.90
56103;DHT22;41970;48.774;9.280;2023-06-24T04:37:08;17.20;99.90
56103;DHT22;41970;48.774;9.280;2023-06-24T04:39:34;17.20;99.90
56103;DHT22;41970;48.774;9.280;2023-06-24T04:41:59;17.30;99.90
56103;DHT22;41970;48.774;9.280;2023-06-24T04:44:26;17.40;99.90
56103;DHT22;41970;48.774;9.280;2023-06-24T04:46:51;17.40;99.90
56103;DHT22;41970;48.774;9.280;2023-06-24T04:49:18;17.50;99.90
56103;DHT22;41970;48.774;9.280;2023-06-24T04:51:45;17.50;99.90
56103;DHT22;41970;48.774;9.280;2023-06-24T04:54:11;17.50;99.90
56103;DHT22;41970;48.774;9.280;2023-06-24T04:56:38;17.50;99.90
56103;DHT22;41970;48.774;9.280;2023-06-24T04:59:04;17.60;99.90
56103;DHT22;41970;48.774;9.280;2023-06-24T05:01:30;17.60;99.90
56103;DHT22;41970;48.774;9.280;2023-06-24T05:03:57;17.60;99.90
56103;DHT22;41970;48.774;9.280;2023-06-24T05:06:22;17.60;99.90
56103;DHT22;41970;48.774;9.280;2023-06-24T05:08:48;17.60;99.90
56103;DHT22;41970;48.774;9.280;2023-06-24T05:11:14;17.60;99.90
56103;DHT22;41970;48.774;9.280;2023-06-24T05:13:40;17.50;99.90
56103;DHT22;41970;48.774;9.280;2023-06-24T05:16:06;17.40;99.90
56103;DHT22;41970;48.774;9.280;2023-06-24T05:18:31;17.30;99.90
56103;DHT22;41970;48.774;9.280;2023-06-24T05:20:57;17.30;99.90
56103;DHT22;41970;48.774;9.280;2023-06-24T05:23:23;17.40;99.90
56103;DHT22;41970;48.774;9.280;2023-06-24T05:25:48;17.50;99.90
56103;DHT22;41970;48.774;9.280;2023-06-24T05:28:14;17.60;99.90
56103;DHT22;41970;48.774;9.280;2023-06-24T05:30:41;17.70;99.90
56103;DHT22;41970;48.774;9.280;2023-06-24T05:33:07;17.80;99.90
56103;DHT22;41970;48.774;9.280;2023-06-24T05:35:33;17.70;99.90
56103;DHT22;41970;48.774;9.280;2023-06-24T05:37:59;17.80;99.90
56103;DHT22;41970;48.774;9.280;2023-06-24T05:40:25;17.80;99.90
56103;DHT22;41970;48.774;9.280;2023-06-24T05:42:50;17.80;99.90
56103;DHT22;41970;48.774;9.280;2023-06-24T05:45:17;17.90;99.90
56103;DHT22;41970;48.774;9.280;2023-06-24T05:47:43;18.00;99.90
56103;DHT22;41970;48.774;9.280;2023-06-24T05:50:09;18.00;99.90
56103;DHT22;41970;48.774;9.280;2023-06-24T05:52:34;18.00;99.90
56103;DHT22;41970;48.774;9.280;2023-06-24T05:55:00;18.00;99.90
56103;DHT22;41970;48.774;9.280;2023-06-24T05:57:26;18.00;99.90
56103;DHT22;41970;48.774;9.280;2023-06-24T05:59:52;18.10;99.90
56103;DHT22;41970;48.774;9.280;2023-06-24T06:02:19;18.20;99.90
56103;DHT22;41970;48.774;9.280;2023-06-24T06:04:44;18.20;99.90
56103;DHT22;41970;48.774;9.280;2023-06-24T06:07:10;18.30;99.90
56103;DHT22;41970;48.774;9.280;2023-06-24T06:09:36;18.40;99.90
56103;DHT22;41970;48.774;9.280;2023-06-24T06:12:02;18.50;99.90
56103;DHT22;41970;48.774;9.280;2023-06-24T06:14:28;18.50;99.90
56103;DHT22;41970;48.774;9.280;2023-06-24T06:16:54;18.50;99.90
56103;DHT22;41970;48.774;9.280;2023-06-24T06:19:19;18.50;99.90
56103;DHT22;41970;48.774;9.280;2023-06-24T06:21:45;18.60;99.90
56103;DHT22;41970;48.774;9.280;2023-06-24T06:24:11;18.60;99.90
56103;DHT22;41970;48.774;9.280;2023-06-24T06:26:42;18.70;99.90
56103;DHT22;41970;48.774;9.280;2023-06-24T06:29:09;18.80;99.90
56103;DHT22;41970;48.774;9.280;2023-06-24T06:31:35;18.80;99.90
56103;DHT22;41970;48.774;9.280;2023-06-24T06:34:02;18.90;99.90
56103;DHT22;41970;48.774;9.280;2023-06-24T06:36:28;18.90;99.90
56103;DHT22;41970;48.774;9.280;2023-06-24T06:38:54;19.00;99.60
56103;DHT22;41970;48.774;9.280;2023-06-24T06:41:19;19.10;99.40
56103;DHT22;41970;48.774;9.280;2023-06-24T06:43:51;19.20;99.40
56103;DHT22;41970;48.774;9.280;2023-06-24T06:46:17;19.50;99.00
56103;DHT22;41970;48.774;9.280;2023-06-24T06:48:42;19.70;98.10
56103;DHT22;41970;48.774;9.280;2023-06-24T06:51:08;19.90;97.10
56103;DHT22;41970;48.774;9.280;2023-06-24T06:53:34;20.20;97.00
56103;DHT22;41970;48.774;9.280;2023-06-24T06:56:00;20.20;97.30
56103;DHT22;41970;48.774;9.280;2023-06-24T06:58:26;20.40;96.00
56103;DHT22;41970;48.774;9.280;2023-06-24T07:00:51;20.50;95.40
56103;DHT22;41970;48.774;9.280;2023-06-24T07:03:17;20.50;95.60
56103;DHT22;41970;48.774;9.280;2023-06-24T07:05:43;20.60;95.40
56103;DHT22;41970;48.774;9.280;2023-06-24T07:08:09;20.70;95.20
56103;DHT22;41970;48.774;9.280;2023-06-24T07:10:34;20.90;95.80
56103;DHT22;41970;48.774;9.280;2023-06-24T07:13:00;21.20;94.60
56103;DHT22;41970;48.774;9.280;2023-06-24T07:15:28;21.40;94.80
56103;DHT22;41970;48.774;9.280;2023-06-24T07:17:53;21.50;95.00
56103;DHT22;41970;48.774;9.280;2023-06-24T07:20:21;21.70;95.40
56103;DHT22;41970;48.774;9.280;2023-06-24T07:22:47;21.80;94.30
56103;DHT22;41970;48.774;9.280;2023-06-24T07:25:13;22.00;94.60
56103;DHT22;41970;48.774;9.280;2023-06-24T07:27:39;22.30;93.80
56103;DHT22;41970;48.774;9.280;2023-06-24T07:30:05;22.60;93.90
56103;DHT22;41970;48.774;9.280;2023-06-24T07:32:31;23.20;93.50
56103;DHT22;41970;48.774;9.280;2023-06-24T07:34:57;23.70;92.30
56103;DHT22;41970;48.774;9.280;2023-06-24T07:37:23;23.70;91.70
56103;DHT22;41970;48.774;9.280;2023-06-24T07:39:49;23.30;91.30
56103;DHT22;41970;48.774;9.280;2023-06-24T07:42:15;23.20;91.60
56103;DHT22;41970;48.774;9.280;2023-06-24T07:44:48;23.80;92.30
56103;DHT22;41970;48.774;9.280;2023-06-24T07:47:16;24.30;90.50
56103;DHT22;41970;48.774;9.280;2023-06-24T07:49:41;24.20;88.70
56103;DHT22;41970;48.774;9.280;2023-06-24T07:52:07;24.30;89.90
56103;DHT22;41970;48.774;9.280;2023-06-24T07:54:34;24.40;90.10
56103;DHT22;41970;48.774;9.280;2023-06-24T07:57:00;24.70;89.90
56103;DHT22;41970;48.774;9.280;2023-06-24T07:59:25;24.90;89.60
56103;DHT22;41970;48.774;9.280;2023-06-24T08:01:51;25.30;89.10
56103;DHT22;41970;48.774;9.280;2023-06-24T08:04:17;25.70;86.70
56103;DHT22;41970;48.774;9.280;2023-06-24T08:06:42;26.00;86.00
56103;DHT22;41970;48.774;9.280;2023-06-24T08:09:08;26.40;84.90
56103;DHT22;41970;48.774;9.280;2023-06-24T08:11:34;26.30;80.90
56103;DHT22;41970;48.774;9.280;2023-06-24T08:14:00;26.40;82.40
56103;DHT22;41970;48.774;9.280;2023-06-24T08:16:27;26.80;80.40
56103;DHT22;41970;48.774;9.280;2023-06-24T08:18:53;27.10;79.70
56103;DHT22;41970;48.774;9.280;2023-06-24T08:21:19;27.40;78.40
56103;DHT22;41970;48.774;9.280;2023-06-24T08:23:48;27.50;78.00
56103;DHT22;41970;48.774;9.280;2023-06-24T08:26:15;27.60;77.50
56103;DHT22;41970;48.774;9.280;2023-06-24T08:28:41;27.30;77.80
56103;DHT22;41970;48.774;9.280;2023-06-24T08:31:07;27.50;76.50
56103;DHT22;41970;48.774;9.280;2023-06-24T08:33:32;27.60;78.20
56103;DHT22;41970;48.774;9.280;2023-06-24T08:35:58;27.80;77.00
56103;DHT22;41970;48.774;9.280;2023-06-24T08:38:24;28.10;76.10
56103;DHT22;41970;48.774;9.280;2023-06-24T08:40:50;28.20;74.80
56103;DHT22;41970;48.774;9.280;2023-06-24T08:43:16;28.40;75.80
56103;DHT22;41970;48.774;9.280;2023-06-24T08:45:42;28.30;74.20
56103;DHT22;41970;48.774;9.280;2023-06-24T08:48:08;28.50;73.70
56103;DHT22;41970;48.774;9.280;2023-06-24T08:50:43;28.60;73.90
56103;DHT22;41970;48.774;9.280;2023-06-24T08:53:09;28.60;72.80
56103;DHT22;41970;48.774;9.280;2023-06-24T08:55:40;28.60;72.60
56103;DHT22;41970;48.774;9.280;2023-06-24T08:58:07;28.80;73.10
56103;DHT22;41970;48.774;9.280;2023-06-24T09:00:34;28.60;69.90
56103;DHT22;41970;48.774;9.280;2023-06-24T09:03:00;28.60;70.70
56103;DHT22;41970;48.774;9.280;2023-06-24T09:05:25;28.40;69.90
56103;DHT22;41970;48.774;9.280;2023-06-24T09:07:51;28.50;70.40
56103;DHT22;41970;48.774;9.280;2023-06-24T09:10:36;28.80;70.30
56103;DHT22;41970;48.774;9.280;2023-06-24T09:13:04;28.90;69.80
56103;DHT22;41970;48.774;9.280;2023-06-24T09:15:37;29.20;69.00
56103;DHT22;41970;48.774;9.280;2023-06-24T09:18:04;29.30;68.70
56103;DHT22;41970;48.774;9.280;2023-06-24T09:20:31;29.00;67.70
56103;DHT22;41970;48.774;9.280;2023-06-24T09:22:59;28.60;68.60
56103;DHT22;41970;48.774;9.280;2023-06-24T09:25:25;27.80;69.60
56103;DHT22;41970;48.774;9.280;2023-06-24T09:27:51;27.20;70.40
56103;DHT22;41970;48.774;9.280;2023-06-24T09:30:22;26.90;68.90
56103;DHT22;41970;48.774;9.280;2023-06-24T09:32:49;26.70;68.70
56103;DHT22;41970;48.774;9.280;2023-06-24T09:35:18;26.70;69.80
56103;DHT22;41970;48.774;9.280;2023-06-24T09:38:05;26.60;71.50
56103;DHT22;41970;48.774;9.280;2023-06-24T09:40:34;26.80;72.20
56103;DHT22;41970;48.774;9.280;2023-06-24T09:43:01;27.00;71.20
56103;DHT22;41970;48.774;9.280;2023-06-24T09:45:30;27.10;70.30
56103;DHT22;41970;48.774;9.280;2023-06-24T09:47:56;27.00;72.10
56103;DHT22;41970;48.774;9.280;2023-06-24T09:50:25;27.10;71.70
56103;DHT22;41970;48.774;9.280;2023-06-24T09:52:52;27.40;68.50
56103;DHT22;41970;48.774;9.280;2023-06-24T09:55:18;27.60;65.60
56103;DHT22;41970;48.774;9.280;2023-06-24T09:57:50;27.80;64.00
56103;DHT22;41970;48.774;9.280;2023-06-24T10:00:19;27.80;66.40
56103;DHT22;41970;48.774;9.280;2023-06-24T10:02:45;27.90;66.00
56103;DHT22;41970;48.774;9.280;2023-06-24T10:05:13;27.90;67.10
56103;DHT22;41970;48.774;9.280;2023-06-24T10:07:40;27.90;67.80
56103;DHT22;41970;48.774;9.280;2023-06-24T10:10:06;27.90;68.10
56103;DHT22;41970;48.774;9.280;2023-06-24T10:12:34;28.00;66.70
56103;DHT22;41970;48.774;9.280;2023-06-24T10:15:00;28.20;66.20
56103;DHT22;41970;48.774;9.280;2023-06-24T10:17:26;28.20;68.10
56103;DHT22;41970;48.774;9.280;2023-06-24T10:19:53;28.10;66.80
56103;DHT22;41970;48.774;9.280;2023-06-24T10:22:23;27.90;66.30
56103;DHT22;41970;48.774;9.280;2023-06-24T10:24:53;27.80;67.40
56103;DHT22;41970;48.774;9.280;2023-06-24T10:27:21;27.70;66.60
56103;DHT22;41970;48.774;9.280;2023-06-24T10:30:02;27.60;65.30
56103;DHT22;41970;48.774;9.280;2023-06-24T10:32:40;27.80;65.70
56103;DHT22;41970;48.774;9.280;2023-06-24T10:35:07;27.70;65.50
56103;DHT22;41970;48.774;9.280;2023-06-24T10:37:33;27.40;66.60
56103;DHT22;41970;48.774;9.280;2023-06-24T10:40:02;27.60;65.90
56103;DHT22;41970;48.774;9.280;2023-06-24T10:42:44;27.80;64.30
56103;DHT22;41970;48.774;9.280;2023-06-24T10:47:44;27.40;65.70
56103;DHT22;41970;48.774;9.280;2023-06-24T10:50:20;27.60;60.70
56103;DHT22;41970;48.774;9.280;2023-06-24T10:52:48;27.50;61.20
56103;DHT22;41970;48.774;9.280;2023-06-24T10:55:16;27.60;61.00
56103;DHT22;41970;48.774;9.280;2023-06-24T10:57:43;27.40;62.70
56103;DHT22;41970;48.774;9.280;2023-06-24T11:00:09;27.30;63.40
56103;DHT22;41970;48.774;9.280;2023-06-24T11:02:36;27.40;64.10
56103;DHT22;41970;48.774;9.280;2023-06-24T11:05:03;27.50;63.40
56103;DHT22;41970;48.774;9.280;2023-06-24T11:07:31;27.60;64.80
56103;DHT22;41970;48.774;9.280;2023-06-24T11:12:36;27.70;62.90
56103;DHT22;41970;48.774;9.280;2023-06-24T11:15:07;27.70;64.60
56103;DHT22;41970;48.774;9.280;2023-06-24T11:17:37;27.70;65.20
56103;DHT22;41970;48.774;9.280;2023-06-24T11:20:07;27.70;65.00
56103;DHT22;41970;48.774;9.280;2023-06-24T11:22:34;27.70;66.40
56103;DHT22;41970;48.774;9.280;2023-06-24T11:24:59;27.60;65.20
56103;DHT22;41970;48.774;9.280;2023-06-24T11:27:26;27.70;64.60
56103;DHT22;41970;48.774;9.280;2023-06-24T11:29:54;27.90;63.60
56103;DHT22;41970;48.774;9.280;2023-06-24T11:32:20;28.10;64.00
56103;DHT22;41970;48.774;9.280;2023-06-24T11:34:47;28.20;63.30
56103;DHT22;41970;48.774;9.280;2023-06-24T11:37:15;28.20;62.90
56103;DHT22;41970;48.774;9.280;2023-06-24T11:39:42;28.10;61.80
56103;DHT22;41970;48.774;9.280;2023-06-24T11:42:09;28.10;62.20
56103;DHT22;41970;48.774;9.280;2023-06-24T11:44:36;28.20;61.20
56103;DHT22;41970;48.774;9.280;2023-06-24T11:47:06;27.90;60.30
56103;DHT22;41970;48.774;9.280;2023-06-24T11:49:32;27.60;62.30
56103;DHT22;41970;48.774;9.280;2023-06-24T11:52:12;27.60;64.00
56103;DHT22;41970;48.774;9.280;2023-06-24T11:54:40;27.70;63.30
56103;DHT22;41970;48.774;9.280;2023-06-24T11:57:08;27.60;63.10
56103;DHT22;41970;48.774;9.280;2023-06-24T11:59:33;27.70;62.90
56103;DHT22;41970;48.774;9.280;2023-06-24T12:01:59;27.70;63.10
56103;DHT22;41970;48.774;9.280;2023-06-24T12:04:32;27.70;63.10
56103;DHT22;41970;48.774;9.280;2023-06-24T12:06:59;27.80;62.10
56103;DHT22;41970;48.774;9.280;2023-06-24T12:09:25;27.80;63.00
56103;DHT22;41970;48.774;9.280;2023-06-24T12:11:52;27.90;63.30
56103;DHT22;41970;48.774;9.280;2023-06-24T12:14:18;27.80;62.10
56103;DHT22;41970;48.774;9.280;2023-06-24T12:16:44;27.80;62.80
56103;DHT22;41970;48.774;9.280;2023-06-24T12:19:10;27.90;62.90
56103;DHT22;41970;48.774;9.280;2023-06-24T12:21:37;28.10;62.00
56103;DHT22;41970;48.774;9.280;2023-06-24T12:24:04;28.10;61.40
56103;DHT22;41970;48.774;9.280;2023-06-24T12:26:30;28.00;61.20
56103;DHT22;41970;48.774;9.280;2023-06-24T12:28:56;28.00;60.70
56103;DHT22;41970;48.774;9.280;2023-06-24T12:31:23;28.10;60.50
56103;DHT22;41970;48.774;9.280;2023-06-24T12:33:49;28.10;59.50
56103;DHT22;41970;48.774;9.280;2023-06-24T12:36:15;28.20;59.50
56103;DHT22;41970;48.774;9.280;2023-06-24T12:38:41;28.30;59.30
56103;DHT22;41970;48.774;9.280;2023-06-24T12:41:06;28.30;58.80
56103;DHT22;41970;48.774;9.280;2023-06-24T12:43:33;28.00;58.20
56103;DHT22;41970;48.774;9.280;2023-06-24T12:45:59;28.10;59.50
56103;DHT22;41970;48.774;9.280;2023-06-24T12:48:24;28.10;58.80
56103;DHT22;41970;48.774;9.280;2023-06-24T12:50:50;28.10;59.20
56103;DHT22;41970;48.774;9.280;2023-06-24T12:53:19;28.10;58.10
56103;DHT22;41970;48.774;9.280;2023-06-24T12:55:46;28.20;58.00
56103;DHT22;41970;48.774;9.280;2023-06-24T12:58:14;28.30;58.30
56103;DHT22;41970;48.774;9.280;2023-06-24T13:00:40;28.30;58.80
56103;DHT22;41970;48.774;9.280;2023-06-24T13:03:06;28.40;58.80
56103;DHT22;41970;48.774;9.280;2023-06-24T13:05:32;28.40;58.70
56103;DHT22;41970;48.774;9.280;2023-06-24T13:07:57;28.50;57.90
56103;DHT22;41970;48.774;9.280;2023-06-24T13:10:23;28.00;58.60
56103;DHT22;41970;48.774;9.280;2023-06-24T13:12:49;28.00;58.80
56103;DHT22;41970;48.774;9.280;2023-06-24T13:15:15;27.80;58.60
56103;DHT22;41970;48.774;9.280;2023-06-24T13:17:40;27.80;59.40
56103;DHT22;41970;48.774;9.280;2023-06-24T13:20:07;27.70;59.70
56103;DHT22;41970;48.774;9.280;2023-06-24T13:22:33;28.00;59.00
56103;DHT22;41970;48.774;9.280;2023-06-24T13:25:00;27.90;58.70
56103;DHT22;41970;48.774;9.280;2023-06-24T13:27:25;28.10;58.50
56103;DHT22;41970;48.774;9.280;2023-06-24T13:29:51;28.30;59.10
56103;DHT22;41970;48.774;9.280;2023-06-24T13:32:17;28.50;58.80
56103;DHT22;41970;48.774;9.280;2023-06-24T13:34:42;28.60;58.80
56103;DHT22;41970;48.774;9.280;2023-06-24T13:37:08;28.60;57.20
56103;DHT22;41970;48.774;9.280;2023-06-24T13:39:34;28.60;58.10
56103;DHT22;41970;48.774;9.280;2023-06-24T13:42:00;28.60;57.80
56103;DHT22;41970;48.774;9.280;2023-06-24T13:44:26;28.70;57.40
56103;DHT22;41970;48.774;9.280;2023-06-24T13:46:52;28.90;57.90
56103;DHT22;41970;48.774;9.280;2023-06-24T13:49:19;28.90;57.70
56103;DHT22;41970;48.774;9.280;2023-06-24T13:51:46;29.10;57.10
56103;DHT22;41970;48.774;9.280;2023-06-24T13:54:12;28.60;58.60
56103;DHT22;41970;48.774;9.280;2023-06-24T13:56:37;28.60;58.70
56103;DHT22;41970;48.774;9.280;2023-06-24T13:59:03;28.60;58.70
56103;DHT22;41970;48.774;9.280;2023-06-24T14:01:29;28.80;58.90
56103;DHT22;41970;48.774;9.280;2023-06-24T14:03:55;28.40;58.50
56103;DHT22;41970;48.774;9.280;2023-06-24T14:06:22;28.10;59.50
56103;DHT22;41970;48.774;9.280;2023-06-24T14:08:49;28.00;59.70
56103;DHT22;41970;48.774;9.280;2023-06-24T14:11:15;28.20;59.30
56103;DHT22;41970;48.774;9.280;2023-06-24T14:13:42;28.50;60.40
56103;DHT22;41970;48.774;9.280;2023-06-24T14:16:08;28.70;59.30
56103;DHT22;41970;48.774;9.280;2023-06-24T14:18:36;28.80;59.10
56103;DHT22;41970;48.774;9.280;2023-06-24T14:21:04;28.60;58.90
56103;DHT22;41970;48.774;9.280;2023-06-24T14:23:30;28.60;58.60
56103;DHT22;41970;48.774;9.280;2023-06-24T14:25:57;28.60;58.20
56103;DHT22;41970;48.774;9.280;2023-06-24T14:28:23;28.30;58.30
56103;DHT22;41970;48.774;9.280;2023-06-24T14:30:49;28.20;59.40
56103;DHT22;41970;48.774;9.280;2023-06-24T14:33:15;28.30;59.10
56103;DHT22;41970;48.774;9.280;2023-06-24T14:35:41;28.40;59.10
56103;DHT22;41970;48.774;9.280;2023-06-24T14:38:07;28.50;60.10
56103;DHT22;41970;48.774;9.280;2023-06-24T14:40:33;28.50;58.70
56103;DHT22;41970;48.774;9.280;2023-06-24T14:42:59;28.60;57.90
56103;DHT22;41970;48.774;9.280;2023-06-24T14:45:25;28.70;58.10
56103;DHT22;41970;48.774;9.280;2023-06-24T14:47:51;28.90;57.40
56103;DHT22;41970;48.774;9.280;2023-06-24T14:50:17;29.10;58.00
56103;DHT22;41970;48.774;9.280;2023-06-24T14:52:42;28.70;57.40
56103;DHT22;41970;48.774;9.280;2023-06-24T14:55:10;28.60;57.90
56103;DHT22;41970;48.774;9.280;2023-06-24T14:57:36;28.40;57.60
56103;DHT22;41970;48.774;9.280;2023-06-24T15:00:06;28.60;57.20
56103;DHT22;41970;48.774;9.280;2023-06-24T15:02:33;28.70;56.90
56103;DHT22;41970;48.774;9.280;2023-06-24T15:04:59;28.80;57.70
56103;DHT22;41970;48.774;9.280;2023-06-24T15:07:24;28.90;58.30
56103;DHT22;41970;48.774;9.280;2023-06-24T15:09:50;28.90;57.60
56103;DHT22;41970;48.774;9.280;2023-06-24T15:12:16;29.00;56.40
56103;DHT22;41970;48.774;9.280;2023-06-24T15:14:41;29.00;56.10
56103;DHT22;41970;48.774;9.280;2023-06-24T15:17:10;28.90;56.60
56103;DHT22;41970;48.774;9.280;2023-06-24T15:19:36;28.70;56.90
56103;DHT22;41970;48.774;9.280;2023-06-24T15:22:02;28.80;56.70
56103;DHT22;41970;48.774;9.280;2023-06-24T15:24:27;28.90;56.30
56103;DHT22;41970;48.774;9.280;2023-06-24T15:26:53;28.60;57.10
56103;DHT22;41970;48.774;9.280;2023-06-24T15:29:19;28.40;57.30
56103;DHT22;41970;48.774;9.280;2023-06-24T15:31:45;28.50;57.30
56103;DHT22;41970;48.774;9.280;2023-06-24T15:34:11;28.40;57.50
56103;DHT22;41970;48.774;9.280;2023-06-24T15:36:37;28.30;57.70
56103;DHT22;41970;48.774;9.280;2023-06-24T15:39:03;28.30;58.60
56103;DHT22;41970;48.774;9.280;2023-06-24T15:41:28;28.50;58.20
56103;DHT22;41970;48.774;9.280;2023-06-24T15:43:54;28.80;58.00
56103;DHT22;41970;48.774;9.280;2023-06-24T15:46:20;28.80;57.80
56103;DHT22;41970;48.774;9.280;2023-06-24T15:48:48;29.00;57.60